createdAt,value
2023-02-16T00:01:58.769Z,53.08
2023-02-16T00:04:31.066Z,52.53
2023-02-16T00:06:58.050Z,52.01
2023-02-16T00:09:25.461Z,52.95
2023-02-16T00:11:53.214Z,53.43
2023-02-16T00:14:22.124Z,53.81
2023-02-16T00:16:49.297Z,55.87
2023-02-16T00:19:20.770Z,53.92
2023-02-16T00:21:49.649Z,54.01
2023-02-16T00:24:17.119Z,54.15
2023-02-16T00:26:44.951Z,54.99
2023-02-16T00:29:19.369Z,56.47
2023-02-16T00:31:46.121Z,56.66
2023-02-16T00:34:27.791Z,56.74
2023-02-16T00:36:55.552Z,55.98
2023-02-16T00:39:22.321Z,56.52
2023-02-16T00:41:49.244Z,56.49
2023-02-16T00:44:32.204Z,55.56
2023-02-16T00:47:31.725Z,55.54
2023-02-16T00:49:58.861Z,57.37
2023-02-16T00:52:39.912Z,57.22
2023-02-16T00:55:09.870Z,56.70
2023-02-16T00:57:42.753Z,54.34
2023-02-16T01:00:23.400Z,56.03
2023-02-16T01:02:53.021Z,57.16
2023-02-16T01:05:19.836Z,55.49
2023-02-16T01:07:46.528Z,55.31
2023-02-16T01:10:13.207Z,54.52
2023-02-16T01:12:40.197Z,53.59
2023-02-16T01:15:13.892Z,52.83
2023-02-16T01:17:40.804Z,52.14
2023-02-16T01:20:16.996Z,52.17
2023-02-16T01:22:43.726Z,51.32
2023-02-16T01:25:10.606Z,52.38
2023-02-16T01:27:39.633Z,51.95
2023-02-16T01:30:13.297Z,52.21
2023-02-16T01:32:40.026Z,53.11
2023-02-16T01:35:07.928Z,55.00
2023-02-16T01:37:35.009Z,54.41
2023-02-16T01:40:01.848Z,55.08
2023-02-16T01:42:51.254Z,53.66
2023-02-16T01:45:25.798Z,53.99
2023-02-16T01:48:02.304Z,54.05
2023-02-16T01:50:51.173Z,54.23
2023-02-16T01:53:43.092Z,53.35
2023-02-16T01:56:22.842Z,53.10
2023-02-16T01:58:56.524Z,52.92
2023-02-16T02:01:41.743Z,52.98
2023-02-16T02:04:23.525Z,51.94
2023-02-16T02:06:50.125Z,51.13
2023-02-16T02:09:45.333Z,52.71
2023-02-16T02:12:14.948Z,52.90
2023-02-16T02:14:41.659Z,53.84
2023-02-16T02:17:18.866Z,53.30
2023-02-16T02:20:08.908Z,52.41
2023-02-16T02:22:57.163Z,53.30
2023-02-16T02:26:05.774Z,53.18
2023-02-16T02:29:05.181Z,53.13
2023-02-16T02:32:04.701Z,53.56
2023-02-16T02:34:59.048Z,54.06
2023-02-16T02:37:39.186Z,54.86
2023-02-16T02:40:23.903Z,53.56
2023-02-16T02:42:53.397Z,52.37
2023-02-16T02:45:31.517Z,53.89
2023-02-16T02:47:58.146Z,55.74
2023-02-16T02:50:30.342Z,56.63
2023-02-16T02:53:01.807Z,54.64
2023-02-16T02:55:32.125Z,55.88
2023-02-16T02:57:59.595Z,55.60
2023-02-16T03:00:40.667Z,57.58
2023-02-16T03:03:31.585Z,56.47
2023-02-16T03:06:13.296Z,55.24
2023-02-16T03:08:45.032Z,54.49
2023-02-16T03:11:17.287Z,55.49
2023-02-16T03:13:50.736Z,54.75
2023-02-16T03:16:27.407Z,54.64
2023-02-16T03:18:57.370Z,52.79
2023-02-16T03:21:27.097Z,52.93
2023-02-16T03:23:56.094Z,53.15
2023-02-16T03:26:26.718Z,52.83
2023-02-16T03:28:54.065Z,53.22
2023-02-16T03:31:27.830Z,53.97
2023-02-16T03:33:54.996Z,54.15
2023-02-16T03:36:29.512Z,54.22
2023-02-16T03:38:58.174Z,53.60
2023-02-16T03:41:26.473Z,54.22
2023-02-16T03:43:53.089Z,55.60
2023-02-16T03:46:19.825Z,55.44
2023-02-16T03:48:48.493Z,55.13
2023-02-16T03:51:15.118Z,54.67
2023-02-16T03:53:41.808Z,53.80
2023-02-16T03:56:08.701Z,53.95
2023-02-16T03:58:35.332Z,53.59
2023-02-16T04:01:02.464Z,53.81
2023-02-16T04:03:29.572Z,53.42
2023-02-16T04:05:56.179Z,54.13
2023-02-16T04:08:22.925Z,54.39
2023-02-16T04:10:49.548Z,55.06
2023-02-16T04:13:36.097Z,56.78
2023-02-16T04:16:03.478Z,56.29
2023-02-16T04:18:30.070Z,56.55
2023-02-16T04:20:56.680Z,55.33
2023-02-16T04:23:23.316Z,54.58
2023-02-16T04:25:49.935Z,53.80
2023-02-16T04:28:16.608Z,53.45
2023-02-16T04:30:43.384Z,53.72
2023-02-16T04:33:10.065Z,55.01
2023-02-16T04:35:36.739Z,55.60
2023-02-16T04:38:03.356Z,55.33
2023-02-16T04:40:30.005Z,54.73
2023-02-16T04:42:56.768Z,54.68
2023-02-16T04:45:23.433Z,55.35
2023-02-16T04:47:50.086Z,55.06
2023-02-16T04:50:16.854Z,55.67
2023-02-16T04:52:43.505Z,55.88
2023-02-16T04:55:10.150Z,56.02
2023-02-16T04:57:38.791Z,55.92
2023-02-16T05:00:07.938Z,56.66
2023-02-16T05:02:34.544Z,57.18
2023-02-16T05:05:01.181Z,58.04
2023-02-16T05:07:27.779Z,56.67
2023-02-16T05:09:54.498Z,56.55
2023-02-16T05:12:21.136Z,56.20
2023-02-16T05:14:47.828Z,54.85
2023-02-16T05:17:25.944Z,57.38
2023-02-16T05:19:59.031Z,58.94
2023-02-16T05:22:26.849Z,57.35
2023-02-16T05:24:53.471Z,58.06
2023-02-16T05:27:23.986Z,57.08
2023-02-16T05:29:50.751Z,60.98
2023-02-16T05:32:18.650Z,59.85
2023-02-16T05:34:45.798Z,60.01
2023-02-16T05:37:14.507Z,58.79
2023-02-16T05:39:41.403Z,59.09
2023-02-16T05:42:08.330Z,59.53
2023-02-16T05:44:35.192Z,59.57
2023-02-16T05:47:01.815Z,58.72
2023-02-16T05:49:28.457Z,58.08
2023-02-16T05:51:55.173Z,58.18
2023-02-16T05:54:21.794Z,61.14
2023-02-16T05:56:51.559Z,59.62
2023-02-16T05:59:18.671Z,60.27
2023-02-16T06:01:47.944Z,62.00
2023-02-16T06:04:17.315Z,64.06
2023-02-16T06:06:44.147Z,63.93
2023-02-16T06:09:10.845Z,64.25
2023-02-16T06:11:37.550Z,61.36
2023-02-16T06:14:18.847Z,61.22
2023-02-16T06:16:48.281Z,59.70
2023-02-16T06:19:17.541Z,60.08
2023-02-16T06:21:44.831Z,61.04
2023-02-16T06:24:13.604Z,60.83
2023-02-16T06:26:41.162Z,61.78
2023-02-16T06:29:09.605Z,60.59
2023-02-16T06:31:37.185Z,60.38
2023-02-16T06:34:04.898Z,61.28
2023-02-16T06:36:32.164Z,59.78
2023-02-16T06:38:58.944Z,60.06
2023-02-16T06:41:25.737Z,60.80
2023-02-16T06:43:52.376Z,59.14
2023-02-16T06:46:19.048Z,58.37
2023-02-16T06:48:45.762Z,57.21
2023-02-16T06:51:12.374Z,56.57
2023-02-16T06:53:39.448Z,57.27
2023-02-16T06:56:06.194Z,56.45
2023-02-16T06:58:32.823Z,57.60
2023-02-16T07:00:59.458Z,57.95
2023-02-16T07:03:27.143Z,61.48
2023-02-16T07:05:53.797Z,59.37
2023-02-16T07:08:20.462Z,59.67
2023-02-16T07:10:50.047Z,58.13
2023-02-16T07:13:17.174Z,59.45
2023-02-16T07:15:44.000Z,59.06
2023-02-16T07:18:10.665Z,58.64
2023-02-16T07:20:37.306Z,57.25
2023-02-16T07:23:04.534Z,56.61
2023-02-16T07:25:31.203Z,56.16
2023-02-16T07:27:57.853Z,57.42
2023-02-16T07:30:24.608Z,56.89
2023-02-16T07:32:51.414Z,55.44
2023-02-16T07:35:18.124Z,54.84
2023-02-16T07:37:44.747Z,55.82
2023-02-16T07:40:12.016Z,56.38
2023-02-16T07:42:38.785Z,57.17
2023-02-16T07:45:05.816Z,57.41
2023-02-16T07:47:32.444Z,57.03
2023-02-16T07:49:59.079Z,56.61
2023-02-16T07:52:26.211Z,57.33
2023-02-16T07:54:52.829Z,57.08
2023-02-16T07:57:19.459Z,58.77
2023-02-16T07:59:46.088Z,56.01
2023-02-16T08:02:17.503Z,53.80
2023-02-16T08:04:44.190Z,52.25
2023-02-16T08:07:15.809Z,50.33
2023-02-16T08:09:42.859Z,48.78
2023-02-16T08:12:13.706Z,47.21
2023-02-16T08:14:40.960Z,45.45
2023-02-16T08:17:10.734Z,44.55
2023-02-16T08:19:37.432Z,44.68
2023-02-16T08:22:05.428Z,44.20
2023-02-16T08:24:32.088Z,44.05
2023-02-16T08:26:58.720Z,44.44
2023-02-16T08:29:25.490Z,44.50
2023-02-16T08:31:52.820Z,45.00
2023-02-16T08:34:20.504Z,45.02
2023-02-16T08:36:51.741Z,45.15
2023-02-16T08:39:21.278Z,45.43
2023-02-16T08:41:49.998Z,46.46
2023-02-16T08:44:18.474Z,46.86
2023-02-16T08:46:47.422Z,48.25
2023-02-16T08:49:16.824Z,48.59
2023-02-16T08:51:46.726Z,47.90
2023-02-16T08:54:21.076Z,49.72
2023-02-16T08:56:48.208Z,52.05
2023-02-16T08:59:17.883Z,51.85
2023-02-16T09:01:44.658Z,51.86
2023-02-16T09:04:11.595Z,51.67
2023-02-16T09:06:41.461Z,52.83
2023-02-16T09:09:09.852Z,53.36
2023-02-16T09:11:37.676Z,53.57
2023-02-16T09:14:05.309Z,54.02
2023-02-16T09:16:32.928Z,55.52
2023-02-16T09:19:01.173Z,55.72
2023-02-16T09:21:28.933Z,56.63
2023-02-16T09:23:55.818Z,56.70
2023-02-16T09:26:24.782Z,56.77
2023-02-16T09:28:52.541Z,56.69
2023-02-16T09:31:23.322Z,56.78
2023-02-16T09:33:49.957Z,56.50
2023-02-16T09:36:16.584Z,56.77
2023-02-16T09:38:43.233Z,57.74
2023-02-16T09:41:26.994Z,57.51
2023-02-16T09:44:27.504Z,57.73
2023-02-16T09:46:58.381Z,57.04
2023-02-16T09:49:40.302Z,56.88
2023-02-16T09:52:39.698Z,56.81
2023-02-16T09:55:12.508Z,57.11
2023-02-16T09:57:39.087Z,56.10
2023-02-16T10:00:41.071Z,56.59
2023-02-16T10:03:36.205Z,56.30
2023-02-16T10:06:36.026Z,55.79
2023-02-16T10:09:15.855Z,57.24
2023-02-16T10:12:00.024Z,56.93
2023-02-16T10:14:35.119Z,57.27
2023-02-16T10:17:01.668Z,57.22
2023-02-16T10:19:52.338Z,58.47
2023-02-16T10:22:41.579Z,57.35
2023-02-16T10:25:20.110Z,57.15
2023-02-16T10:27:58.297Z,57.30
2023-02-16T10:30:24.987Z,58.56
2023-02-16T10:33:10.238Z,57.89
2023-02-16T10:35:57.038Z,57.30
2023-02-16T10:38:57.807Z,56.98
2023-02-16T10:41:34.808Z,58.21
2023-02-16T10:44:21.671Z,57.23
2023-02-16T10:46:58.299Z,56.06
2023-02-16T10:49:25.344Z,56.90
2023-02-16T10:51:56.916Z,55.07
2023-02-16T10:54:30.220Z,55.28
2023-02-16T10:56:58.204Z,55.24
2023-02-16T10:59:43.074Z,55.84
2023-02-16T11:02:40.941Z,55.70
2023-02-16T11:05:25.857Z,55.20
2023-02-16T11:07:56.294Z,55.13
2023-02-16T11:10:34.434Z,55.42
2023-02-16T11:13:01.072Z,54.08
2023-02-16T11:15:29.322Z,52.52
2023-02-16T11:18:04.208Z,52.44
2023-02-16T11:20:30.758Z,53.88
2023-02-16T11:23:26.085Z,52.74
2023-02-16T11:25:58.749Z,54.83
2023-02-16T11:28:34.904Z,53.93
2023-02-16T11:31:28.296Z,54.10
2023-02-16T11:34:08.280Z,52.74
2023-02-16T11:36:43.274Z,52.00
2023-02-16T11:39:23.724Z,49.94
2023-02-16T11:41:57.727Z,50.56
2023-02-16T11:44:34.530Z,51.72
2023-02-16T11:47:07.337Z,50.83
2023-02-16T11:49:41.438Z,49.96
2023-02-16T11:52:22.702Z,51.80
2023-02-16T11:54:55.387Z,51.58
2023-02-16T11:57:31.316Z,51.72
2023-02-16T11:59:59.931Z,50.35
2023-02-16T12:03:07.483Z,50.48
2023-02-16T12:05:54.045Z,50.57
2023-02-16T12:08:37.090Z,49.79
2023-02-16T12:11:36.660Z,51.06
2023-02-16T12:14:42.486Z,50.29
2023-02-16T12:17:15.181Z,50.62
2023-02-16T12:19:48.663Z,49.16
2023-02-16T12:22:48.085Z,49.60
2023-02-16T12:25:50.206Z,47.37
2023-02-16T12:28:19.450Z,46.63
2023-02-16T12:30:48.891Z,46.99
2023-02-16T12:33:38.343Z,46.06
2023-02-16T12:36:46.351Z,46.50
2023-02-16T12:39:27.494Z,46.52
2023-02-16T12:42:24.351Z,45.16
2023-02-16T12:44:57.030Z,43.97
2023-02-16T12:47:34.746Z,44.19
2023-02-16T12:50:13.933Z,44.16
2023-02-16T12:53:04.222Z,43.76
2023-02-16T12:55:44.618Z,44.12
2023-02-16T12:58:14.132Z,43.33
2023-02-16T13:01:02.013Z,43.75
2023-02-16T13:03:53.826Z,42.79
2023-02-16T13:06:32.754Z,42.00
2023-02-16T13:09:31.604Z,43.31
2023-02-16T13:12:13.843Z,42.56
2023-02-16T13:14:45.873Z,43.24
2023-02-16T13:17:33.517Z,42.75
2023-02-16T13:20:00.467Z,43.14
2023-02-16T13:22:36.924Z,42.16
2023-02-16T13:25:28.108Z,42.49
2023-02-16T13:28:06.825Z,42.61
2023-02-16T13:31:14.780Z,42.04
2023-02-16T13:34:25.263Z,41.82
2023-02-16T13:37:36.005Z,41.29
2023-02-16T13:40:23.635Z,40.46
2023-02-16T13:43:08.769Z,41.06
2023-02-16T13:45:42.602Z,41.58
2023-02-16T13:48:27.461Z,40.43
2023-02-16T13:51:04.800Z,40.66
2023-02-16T13:53:37.922Z,41.31
2023-02-16T13:56:14.346Z,39.30
2023-02-16T13:58:41.024Z,38.39
2023-02-16T14:01:32.337Z,37.66
2023-02-16T14:04:00.776Z,37.37
2023-02-16T14:06:27.367Z,37.41
2023-02-16T14:09:12.210Z,36.75
2023-02-16T14:11:50.873Z,39.05
2023-02-16T14:14:38.505Z,36.31
2023-02-16T14:17:20.233Z,37.22
2023-02-16T14:19:57.078Z,38.80
2023-02-16T14:22:45.303Z,36.82
2023-02-16T14:25:20.807Z,37.10
2023-02-16T14:27:59.633Z,34.70
2023-02-16T14:30:32.163Z,35.23
2023-02-16T14:33:13.052Z,35.24
2023-02-16T14:35:46.868Z,34.69
2023-02-16T14:38:34.660Z,35.99
2023-02-16T14:41:31.232Z,35.89
2023-02-16T14:44:03.918Z,36.41
2023-02-16T14:47:00.056Z,35.46
2023-02-16T14:49:44.977Z,35.58
2023-02-16T14:52:46.201Z,35.72
2023-02-16T14:55:24.704Z,38.20
2023-02-16T14:58:09.453Z,37.95
2023-02-16T15:01:05.506Z,36.59
2023-02-16T15:03:58.756Z,35.73
2023-02-16T15:06:41.680Z,35.89
2023-02-16T15:09:22.476Z,36.26
2023-02-16T15:11:59.591Z,35.93
2023-02-16T15:14:28.373Z,35.89
2023-02-16T15:16:58.227Z,36.05
2023-02-16T15:19:30.818Z,37.00
2023-02-16T15:22:20.499Z,36.66
2023-02-16T15:25:05.007Z,35.27
2023-02-16T15:27:31.928Z,35.91
2023-02-16T15:30:18.900Z,34.39
2023-02-16T15:33:01.555Z,36.19
2023-02-16T15:35:42.437Z,36.60
2023-02-16T15:38:13.002Z,35.82
2023-02-16T15:40:40.404Z,36.26
2023-02-16T15:43:42.372Z,35.84
2023-02-16T15:46:33.989Z,35.99
2023-02-16T15:49:29.222Z,36.00
2023-02-16T15:51:58.662Z,35.86
2023-02-16T15:54:28.010Z,35.85
2023-02-16T15:56:58.118Z,36.96
2023-02-16T15:59:27.411Z,37.76
2023-02-16T16:02:13.771Z,37.83
2023-02-16T16:04:44.381Z,37.90
2023-02-16T16:07:25.564Z,36.03
2023-02-16T16:09:54.044Z,35.24
2023-02-16T16:12:21.504Z,35.05
2023-02-16T16:14:55.556Z,35.21
2023-02-16T16:17:37.234Z,35.06
2023-02-16T16:20:21.848Z,34.90
2023-02-16T16:22:57.322Z,35.05
2023-02-16T16:25:29.996Z,34.85
2023-02-16T16:27:57.740Z,34.56
2023-02-16T16:30:24.382Z,34.42
2023-02-16T16:33:04.742Z,34.52
2023-02-16T16:35:50.127Z,35.07
2023-02-16T16:38:27.600Z,36.57
2023-02-16T16:40:58.968Z,34.86
2023-02-16T16:43:32.190Z,35.93
2023-02-16T16:46:13.410Z,36.29
2023-02-16T16:48:47.006Z,37.15
2023-02-16T16:51:38.731Z,36.89
2023-02-16T16:54:30.356Z,37.30
2023-02-16T16:56:57.105Z,36.50
2023-02-16T16:59:23.769Z,36.63
2023-02-16T17:01:50.422Z,37.51
2023-02-16T17:04:17.248Z,37.56
2023-02-16T17:06:43.883Z,36.51
2023-02-16T17:09:10.500Z,37.79
2023-02-16T17:11:38.707Z,38.45
2023-02-16T17:14:27.631Z,37.45
2023-02-16T17:16:55.252Z,36.82
2023-02-16T17:19:23.306Z,37.88
2023-02-16T17:21:50.130Z,37.18
2023-02-16T17:24:16.809Z,36.29
2023-02-16T17:26:43.591Z,36.81
2023-02-16T17:29:10.400Z,37.36
2023-02-16T17:31:37.244Z,38.32
2023-02-16T17:34:03.983Z,37.85
2023-02-16T17:36:30.835Z,37.83
2023-02-16T17:38:57.494Z,38.29
2023-02-16T17:41:27.905Z,38.65
2023-02-16T17:43:54.664Z,38.71
2023-02-16T17:46:22.743Z,38.29
2023-02-16T17:48:51.986Z,38.38
2023-02-16T17:51:21.135Z,39.01
2023-02-16T17:53:47.817Z,39.89
2023-02-16T17:56:17.389Z,39.35
2023-02-16T17:58:44.392Z,39.73
2023-02-16T18:01:14.417Z,40.61
2023-02-16T18:03:41.207Z,39.76
2023-02-16T18:06:08.294Z,40.30
2023-02-16T18:08:34.949Z,41.17
2023-02-16T18:11:01.601Z,41.39
2023-02-16T18:13:29.129Z,42.38
2023-02-16T18:15:57.510Z,41.58
2023-02-16T18:18:24.339Z,40.92
2023-02-16T18:20:51.006Z,40.57
2023-02-16T18:23:17.636Z,39.64
2023-02-16T18:25:44.307Z,39.64
2023-02-16T18:28:17.770Z,38.83
2023-02-16T18:30:45.025Z,39.40
2023-02-16T18:33:11.728Z,39.75
2023-02-16T18:35:38.365Z,39.70
2023-02-16T18:38:05.023Z,39.86
2023-02-16T18:40:31.841Z,40.01
2023-02-16T18:42:58.516Z,41.36
2023-02-16T18:45:25.875Z,42.60
2023-02-16T18:47:52.952Z,43.93
2023-02-16T18:50:19.620Z,43.44
2023-02-16T18:52:46.346Z,43.67
2023-02-16T18:55:13.112Z,43.45
2023-02-16T18:57:39.842Z,42.86
2023-02-16T19:00:08.786Z,43.41
2023-02-16T19:02:35.957Z,43.58
2023-02-16T19:05:02.737Z,45.62
2023-02-16T19:07:29.453Z,43.95
2023-02-16T19:09:56.160Z,43.97
2023-02-16T19:12:22.771Z,43.51
2023-02-16T19:14:49.405Z,44.37
2023-02-16T19:17:16.150Z,45.01
2023-02-16T19:19:42.785Z,45.68
2023-02-16T19:22:09.781Z,46.27
2023-02-16T19:24:36.439Z,46.15
2023-02-16T19:27:03.081Z,45.38
2023-02-16T19:29:29.724Z,46.83
2023-02-16T19:31:56.458Z,45.08
2023-02-16T19:34:24.424Z,44.34
2023-02-16T19:36:51.189Z,44.05
2023-02-16T19:39:18.768Z,43.96
2023-02-16T19:41:45.598Z,43.28
2023-02-16T19:44:14.314Z,44.67
2023-02-16T19:46:42.123Z,45.67
2023-02-16T19:49:11.641Z,45.47
2023-02-16T19:51:38.296Z,44.46
2023-02-16T19:54:04.955Z,44.03
2023-02-16T19:56:31.642Z,44.51
2023-02-16T19:58:59.352Z,44.24
2023-02-16T20:01:28.209Z,45.20
2023-02-16T20:03:57.061Z,46.96
2023-02-16T20:06:26.651Z,46.14
2023-02-16T20:08:54.876Z,46.57
2023-02-16T20:11:24.257Z,45.94
2023-02-16T20:13:51.969Z,45.87
2023-02-16T20:16:20.763Z,46.07
2023-02-16T20:18:47.924Z,45.60
2023-02-16T20:21:20.749Z,47.30
2023-02-16T20:23:49.643Z,48.27
2023-02-16T20:26:20.488Z,47.23
2023-02-16T20:28:48.718Z,47.97
